sensor_id;sensor_type;location;lat;lon;timestamp;pressure;altitude;pressure_sealevel;temperature;humidity
74633;BME280;63139;52.018;8.552;2023-06-10T00:01:09;100539.78;;;16.53;69.96
74633;BME280;63139;52.018;8.552;2023-06-10T00:03:36;100538.34;;;16.44;70.24
74633;BME280;63139;52.018;8.552;2023-06-10T00:06:05;100539.97;;;16.38;70.50
74633;BME280;63139;52.018;8.552;2023-06-10T00:08:33;100543.06;;;16.28;70.56
74633;BME280;63139;52.018;8.552;2023-06-10T00:11:02;100537.28;;;16.18;70.81
74633;BME280;63139;52.018;8.552;2023-06-10T00:13:30;100533.97;;;16.10;71.52
74633;BME280;63139;52.018;8.552;2023-06-10T00:15:58;100533.56;;;16.00;71.55
74633;BME280;63139;52.018;8.552;2023-06-10T00:18:26;100530.44;;;15.89;71.83
74633;BME280;63139;52.018;8.552;2023-06-10T00:20:57;100526.31;;;15.80;72.49
74633;BME280;63139;52.018;8.552;2023-06-10T00:23:29;100525.66;;;15.72;72.42
74633;BME280;63139;52.018;8.552;2023-06-10T00:25:58;100538.38;;;15.63;72.73
74633;BME280;63139;52.018;8.552;2023-06-10T00:28:27;100537.53;;;15.56;73.22
74633;BME280;63139;52.018;8.552;2023-06-10T00:30:55;100534.16;;;15.47;73.41
74633;BME280;63139;52.018;8.552;2023-06-10T00:33:24;100531.66;;;15.39;73.70
74633;BME280;63139;52.018;8.552;2023-06-10T00:35:51;100526.50;;;15.31;73.91
74633;BME280;63139;52.018;8.552;2023-06-10T00:38:20;100530.97;;;15.24;73.99
74633;BME280;63139;52.018;8.552;2023-06-10T00:40:48;100541.59;;;15.18;74.21
74633;BME280;63139;52.018;8.552;2023-06-10T00:43:17;100539.91;;;15.10;74.53
74633;BME280;63139;52.018;8.552;2023-06-10T00:45:47;100539.66;;;15.05;75.30
74633;BME280;63139;52.018;8.552;2023-06-10T00:48:14;100537.59;;;15.00;75.59
74633;BME280;63139;52.018;8.552;2023-06-10T00:50:42;100534.69;;;14.95;75.77
74633;BME280;63139;52.018;8.552;2023-06-10T00:53:10;100540.00;;;14.89;75.98
74633;BME280;63139;52.018;8.552;2023-06-10T00:55:38;100541.00;;;14.88;76.16
74633;BME280;63139;52.018;8.552;2023-06-10T00:58:08;100535.41;;;14.83;76.15
74633;BME280;63139;52.018;8.552;2023-06-10T01:00:36;100536.84;;;14.79;76.43
74633;BME280;63139;52.018;8.552;2023-06-10T01:03:06;100540.28;;;14.72;76.95
74633;BME280;63139;52.018;8.552;2023-06-10T01:05:35;100538.63;;;14.71;77.27
74633;BME280;63139;52.018;8.552;2023-06-10T01:08:07;100534.50;;;14.69;77.05
74633;BME280;63139;52.018;8.552;2023-06-10T01:10:42;100533.66;;;14.68;77.15
74633;BME280;63139;52.018;8.552;2023-06-10T01:13:11;100538.75;;;14.63;76.88
74633;BME280;63139;52.018;8.552;2023-06-10T01:15:41;100541.63;;;14.62;77.22
74633;BME280;63139;52.018;8.552;2023-06-10T01:18:10;100546.13;;;14.61;77.53
74633;BME280;63139;52.018;8.552;2023-06-10T01:20:43;100541.78;;;14.60;77.30
74633;BME280;63139;52.018;8.552;2023-06-10T01:23:14;100543.84;;;14.58;77.65
74633;BME280;63139;52.018;8.552;2023-06-10T01:25:49;100546.72;;;14.57;77.88
74633;BME280;63139;52.018;8.552;2023-06-10T01:28:24;100543.59;;;14.53;77.49
74633;BME280;63139;52.018;8.552;2023-06-10T01:30:59;100537.84;;;14.50;78.05
74633;BME280;63139;52.018;8.552;2023-06-10T01:33:37;100538.38;;;14.45;77.95
74633;BME280;63139;52.018;8.552;2023-06-10T01:36:06;100543.72;;;14.45;77.82
74633;BME280;63139;52.018;8.552;2023-06-10T01:38:40;100540.81;;;14.40;77.97
74633;BME280;63139;52.018;8.552;2023-06-10T01:41:10;100542.84;;;14.38;78.08
74633;BME280;63139;52.018;8.552;2023-06-10T01:43:40;100540.72;;;14.33;78.07
74633;BME280;63139;52.018;8.552;2023-06-10T01:46:07;100541.91;;;14.31;78.18
74633;BME280;63139;52.018;8.552;2023-06-10T01:48:36;100547.81;;;14.26;78.25
74633;BME280;63139;52.018;8.552;2023-06-10T01:51:04;100553.53;;;14.23;78.43
74633;BME280;63139;52.018;8.552;2023-06-10T01:53:32;100558.25;;;14.21;78.65
74633;BME280;63139;52.018;8.552;2023-06-10T01:56:01;100562.09;;;14.19;78.80
74633;BME280;63139;52.018;8.552;2023-06-10T01:58:29;100562.09;;;14.19;78.69
74633;BME280;63139;52.018;8.552;2023-06-10T02:00:57;100566.78;;;14.17;78.58
74633;BME280;63139;52.018;8.552;2023-06-10T02:03:25;100561.03;;;14.13;78.77
74633;BME280;63139;52.018;8.552;2023-06-10T02:05:53;100567.78;;;14.16;78.97
74633;BME280;63139;52.018;8.552;2023-06-10T02:08:21;100563.09;;;14.18;79.01
74633;BME280;63139;52.018;8.552;2023-06-10T02:10:49;100558.78;;;14.17;79.12
74633;BME280;63139;52.018;8.552;2023-06-10T02:13:18;100563.50;;;14.15;78.96
74633;BME280;63139;52.018;8.552;2023-06-10T02:15:50;100571.50;;;14.15;78.86
74633;BME280;63139;52.018;8.552;2023-06-10T02:18:20;100568.00;;;14.14;78.94
74633;BME280;63139;52.018;8.552;2023-06-10T02:20:48;100570.03;;;14.12;78.81
74633;BME280;63139;52.018;8.552;2023-06-10T02:23:16;100571.28;;;14.16;79.21
74633;BME280;63139;52.018;8.552;2023-06-10T02:25:44;100574.16;;;14.15;78.92
74633;BME280;63139;52.018;8.552;2023-06-10T02:28:11;100577.00;;;14.13;79.17
74633;BME280;63139;52.018;8.552;2023-06-10T02:30:41;100576.53;;;14.10;79.02
74633;BME280;63139;52.018;8.552;2023-06-10T02:33:09;100574.28;;;14.07;79.28
74633;BME280;63139;52.018;8.552;2023-06-10T02:35:38;100577.94;;;14.06;79.51
74633;BME280;63139;52.018;8.552;2023-06-10T02:38:06;100572.97;;;14.03;79.55
74633;BME280;63139;52.018;8.552;2023-06-10T02:40:34;100575.22;;;13.99;79.65
74633;BME280;63139;52.018;8.552;2023-06-10T02:43:02;100578.22;;;13.96;79.74
74633;BME280;63139;52.018;8.552;2023-06-10T02:45:31;100580.47;;;13.92;79.57
74633;BME280;63139;52.018;8.552;2023-06-10T02:48:02;100585.50;;;13.87;79.70
74633;BME280;63139;52.018;8.552;2023-06-10T02:50:31;100587.72;;;13.84;79.83
74633;BME280;63139;52.018;8.552;2023-06-10T02:53:13;100586.59;;;13.78;79.86
74633;BME280;63139;52.018;8.552;2023-06-10T02:55:46;100596.63;;;13.76;80.26
74633;BME280;63139;52.018;8.552;2023-06-10T02:58:17;100587.34;;;13.72;80.21
74633;BME280;63139;52.018;8.552;2023-06-10T03:00:44;100594.06;;;13.68;80.39
74633;BME280;63139;52.018;8.552;2023-06-10T03:03:14;100592.59;;;13.66;80.55
74633;BME280;63139;52.018;8.552;2023-06-10T03:05:57;100590.75;;;13.66;80.70
74633;BME280;63139;52.018;8.552;2023-06-10T03:08:26;100590.31;;;13.63;80.66
74633;BME280;63139;52.018;8.552;2023-06-10T03:10:55;100587.84;;;13.61;80.99
74633;BME280;63139;52.018;8.552;2023-06-10T03:13:23;100595.00;;;13.60;80.85
74633;BME280;63139;52.018;8.552;2023-06-10T03:15:51;100589.69;;;13.60;81.11
74633;BME280;63139;52.018;8.552;2023-06-10T03:18:27;100594.34;;;13.58;81.47
74633;BME280;63139;52.018;8.552;2023-06-10T03:20:55;100595.34;;;13.57;81.05
74633;BME280;63139;52.018;8.552;2023-06-10T03:23:25;100589.84;;;13.59;81.07
74633;BME280;63139;52.018;8.552;2023-06-10T03:25:53;100595.00;;;13.60;81.23
74633;BME280;63139;52.018;8.552;2023-06-10T03:28:23;100589.50;;;13.62;81.48
74633;BME280;63139;52.018;8.552;2023-06-10T03:30:50;100589.28;;;13.64;81.29
74633;BME280;63139;52.018;8.552;2023-06-10T03:33:23;100590.13;;;13.64;81.18
74633;BME280;63139;52.018;8.552;2023-06-10T03:35:51;100586.28;;;13.67;81.25
74633;BME280;63139;52.018;8.552;2023-06-10T03:38:19;100593.06;;;13.69;80.88
74633;BME280;63139;52.018;8.552;2023-06-10T03:40:48;100591.25;;;13.70;80.94
74633;BME280;63139;52.018;8.552;2023-06-10T03:43:16;100591.66;;;13.73;80.90
74633;BME280;63139;52.018;8.552;2023-06-10T03:45:44;100597.47;;;13.77;80.86
74633;BME280;63139;52.018;8.552;2023-06-10T03:48:13;100596.06;;;13.81;80.85
74633;BME280;63139;52.018;8.552;2023-06-10T03:50:47;100593.88;;;13.84;80.81
74633;BME280;63139;52.018;8.552;2023-06-10T03:53:17;100596.16;;;13.87;80.71
74633;BME280;63139;52.018;8.552;2023-06-10T03:55:45;100602.59;;;13.93;80.75
74633;BME280;63139;52.018;8.552;2023-06-10T03:58:15;100602.44;;;14.01;80.82
74633;BME280;63139;52.018;8.552;2023-06-10T04:00:44;100600.50;;;14.10;80.43
74633;BME280;63139;52.018;8.552;2023-06-10T04:03:13;100593.81;;;14.14;80.28
74633;BME280;63139;52.018;8.552;2023-06-10T04:05:50;100593.69;;;14.22;79.93
74633;BME280;63139;52.018;8.552;2023-06-10T04:08:18;100596.41;;;14.28;79.59
74633;BME280;63139;52.018;8.552;2023-06-10T04:10:47;100596.47;;;14.35;79.42
74633;BME280;63139;52.018;8.552;2023-06-10T04:13:15;100599.47;;;14.47;79.34
74633;BME280;63139;52.018;8.552;2023-06-10T04:15:53;100593.25;;;14.61;78.69
74633;BME280;63139;52.018;8.552;2023-06-10T04:18:21;100597.00;;;14.88;77.73
74633;BME280;63139;52.018;8.552;2023-06-10T04:20:53;100604.78;;;15.51;75.65
74633;BME280;63139;52.018;8.552;2023-06-10T04:23:22;100602.59;;;15.27;76.10
74633;BME280;63139;52.018;8.552;2023-06-10T04:25:50;100605.28;;;15.55;75.52
74633;BME280;63139;52.018;8.552;2023-06-10T04:28:18;100600.25;;;17.13;70.33
74633;BME280;63139;52.018;8.552;2023-06-10T04:30:46;100613.25;;;18.70;65.71
74633;BME280;63139;52.018;8.552;2023-06-10T04:33:14;100603.19;;;18.90;63.77
74633;BME280;63139;52.018;8.552;2023-06-10T04:35:42;100611.53;;;17.41;68.21
74633;BME280;63139;52.018;8.552;2023-06-10T04:38:14;100616.31;;;17.33;68.90
74633;BME280;63139;52.018;8.552;2023-06-10T04:40:42;100613.19;;;17.36;68.71
74633;BME280;63139;52.018;8.552;2023-06-10T04:43:12;100613.16;;;17.56;67.80
74633;BME280;63139;52.018;8.552;2023-06-10T04:45:42;100612.19;;;17.30;67.93
74633;BME280;63139;52.018;8.552;2023-06-10T04:48:11;100616.28;;;17.46;67.50
74633;BME280;63139;52.018;8.552;2023-06-10T04:50:39;100617.97;;;17.07;67.08
74633;BME280;63139;52.018;8.552;2023-06-10T04:53:07;100606.03;;;16.84;68.74
74633;BME280;63139;52.018;8.552;2023-06-10T04:55:39;100611.41;;;16.77;68.69
74633;BME280;63139;52.018;8.552;2023-06-10T04:58:07;100614.50;;;16.74;69.16
74633;BME280;63139;52.018;8.552;2023-06-10T05:00:34;100608.09;;;16.68;68.94
74633;BME280;63139;52.018;8.552;2023-06-10T05:03:02;100607.50;;;16.66;69.08
74633;BME280;63139;52.018;8.552;2023-06-10T05:05:30;100607.25;;;16.68;69.17
74633;BME280;63139;52.018;8.552;2023-06-10T05:07:58;100608.53;;;16.72;68.80
74633;BME280;63139;52.018;8.552;2023-06-10T05:10:26;100621.69;;;16.80;69.14
74633;BME280;63139;52.018;8.552;2023-06-10T05:12:55;100625.19;;;16.87;68.66
74633;BME280;63139;52.018;8.552;2023-06-10T05:15:23;100619.22;;;16.92;68.23
74633;BME280;63139;52.018;8.552;2023-06-10T05:17:50;100622.31;;;17.08;68.16
74633;BME280;63139;52.018;8.552;2023-06-10T05:20:19;100619.94;;;17.58;67.10
74633;BME280;63139;52.018;8.552;2023-06-10T05:22:47;100618.78;;;18.05;66.59
74633;BME280;63139;52.018;8.552;2023-06-10T05:25:15;100624.56;;;18.40;65.71
74633;BME280;63139;52.018;8.552;2023-06-10T05:27:43;100609.94;;;18.74;64.96
74633;BME280;63139;52.018;8.552;2023-06-10T05:30:12;100616.25;;;19.05;62.13
74633;BME280;63139;52.018;8.552;2023-06-10T05:32:40;100625.66;;;19.38;62.99
74633;BME280;63139;52.018;8.552;2023-06-10T05:35:08;100627.22;;;19.71;62.17
74633;BME280;63139;52.018;8.552;2023-06-10T05:37:36;100626.88;;;19.97;61.14
74633;BME280;63139;52.018;8.552;2023-06-10T05:40:06;100629.53;;;20.15;59.57
74633;BME280;63139;52.018;8.552;2023-06-10T05:42:34;100635.94;;;20.33;59.30
74633;BME280;63139;52.018;8.552;2023-06-10T05:45:02;100630.38;;;20.46;58.95
74633;BME280;63139;52.018;8.552;2023-06-10T05:47:31;100621.53;;;20.57;57.67
74633;BME280;63139;52.018;8.552;2023-06-10T05:49:59;100630.94;;;20.66;57.33
74633;BME280;63139;52.018;8.552;2023-06-10T05:52:27;100618.53;;;20.65;57.36
74633;BME280;63139;52.018;8.552;2023-06-10T05:54:55;100626.13;;;20.68;57.29
74633;BME280;63139;52.018;8.552;2023-06-10T05:57:22;100626.38;;;20.67;56.04
74633;BME280;63139;52.018;8.552;2023-06-10T05:59:50;100624.25;;;20.69;56.90
74633;BME280;63139;52.018;8.552;2023-06-10T06:02:18;100628.56;;;20.58;56.32
74633;BME280;63139;52.018;8.552;2023-06-10T06:04:47;100635.53;;;20.47;56.27
74633;BME280;63139;52.018;8.552;2023-06-10T06:07:15;100626.88;;;20.45;56.38
74633;BME280;63139;52.018;8.552;2023-06-10T06:09:43;100625.69;;;20.41;56.76
74633;BME280;63139;52.018;8.552;2023-06-10T06:12:11;100631.19;;;20.35;55.77
74633;BME280;63139;52.018;8.552;2023-06-10T06:14:39;100621.88;;;20.31;55.83
74633;BME280;63139;52.018;8.552;2023-06-10T06:17:07;100619.06;;;20.26;56.31
74633;BME280;63139;52.018;8.552;2023-06-10T06:19:35;100624.09;;;20.22;56.19
74633;BME280;63139;52.018;8.552;2023-06-10T06:22:04;100615.50;;;20.13;55.68
74633;BME280;63139;52.018;8.552;2023-06-10T06:24:32;100617.81;;;20.10;56.43
74633;BME280;63139;52.018;8.552;2023-06-10T06:27:00;100621.06;;;20.00;55.96
74633;BME280;63139;52.018;8.552;2023-06-10T06:29:28;100619.72;;;19.91;56.68
74633;BME280;63139;52.018;8.552;2023-06-10T06:31:57;100616.88;;;19.86;56.99
74633;BME280;63139;52.018;8.552;2023-06-10T06:34:25;100618.38;;;19.82;57.37
74633;BME280;63139;52.018;8.552;2023-06-10T06:36:53;100617.22;;;19.78;57.91
74633;BME280;63139;52.018;8.552;2023-06-10T06:39:23;100626.63;;;19.69;58.01
74633;BME280;63139;52.018;8.552;2023-06-10T06:41:51;100617.94;;;19.67;58.10
74633;BME280;63139;52.018;8.552;2023-06-10T06:44:26;100618.38;;;19.64;58.56
74633;BME280;63139;52.018;8.552;2023-06-10T06:46:53;100612.03;;;19.58;58.53
74633;BME280;63139;52.018;8.552;2023-06-10T06:49:21;100616.81;;;19.56;58.56
74633;BME280;63139;52.018;8.552;2023-06-10T06:51:49;100620.56;;;19.55;58.43
74633;BME280;63139;52.018;8.552;2023-06-10T06:54:17;100620.19;;;19.52;58.35
74633;BME280;63139;52.018;8.552;2023-06-10T06:56:46;100618.53;;;19.51;58.52
74633;BME280;63139;52.018;8.552;2023-06-10T06:59:14;100624.38;;;19.48;58.84
74633;BME280;63139;52.018;8.552;2023-06-10T07:01:42;100625.41;;;19.47;58.68
74633;BME280;63139;52.018;8.552;2023-06-10T07:04:10;100620.03;;;19.47;58.60
74633;BME280;63139;52.018;8.552;2023-06-10T07:06:38;100617.13;;;19.48;58.41
74633;BME280;63139;52.018;8.552;2023-06-10T07:09:07;100627.47;;;19.45;58.18
74633;BME280;63139;52.018;8.552;2023-06-10T07:11:35;100614.84;;;19.45;58.29
74633;BME280;63139;52.018;8.552;2023-06-10T07:14:04;100619.00;;;19.48;57.78
74633;BME280;63139;52.018;8.552;2023-06-10T07:16:32;100617.50;;;19.52;57.99
74633;BME280;63139;52.018;8.552;2023-06-10T07:19:00;100621.41;;;19.56;57.95
74633;BME280;63139;52.018;8.552;2023-06-10T07:21:31;100617.19;;;19.60;57.97
74633;BME280;63139;52.018;8.552;2023-06-10T07:24:00;100625.41;;;19.65;57.86
74633;BME280;63139;52.018;8.552;2023-06-10T07:26:28;100634.59;;;19.75;57.60
74633;BME280;63139;52.018;8.552;2023-06-10T07:28:56;100634.50;;;19.82;57.40
74633;BME280;63139;52.018;8.552;2023-06-10T07:31:25;100639.19;;;19.87;57.62
74633;BME280;63139;52.018;8.552;2023-06-10T07:33:53;100628.63;;;19.92;58.12
74633;BME280;63139;52.018;8.552;2023-06-10T07:36:20;100635.78;;;19.98;57.31
74633;BME280;63139;52.018;8.552;2023-06-10T07:38:48;100639.63;;;20.02;57.19
74633;BME280;63139;52.018;8.552;2023-06-10T07:41:16;100638.16;;;20.06;57.80
74633;BME280;63139;52.018;8.552;2023-06-10T07:43:44;100630.91;;;20.06;57.92
74633;BME280;63139;52.018;8.552;2023-06-10T07:46:12;100632.69;;;20.12;57.57
74633;BME280;63139;52.018;8.552;2023-06-10T07:48:41;100646.28;;;20.17;57.16
74633;BME280;63139;52.018;8.552;2023-06-10T07:51:09;100630.28;;;20.23;55.85
74633;BME280;63139;52.018;8.552;2023-06-10T07:53:36;100629.38;;;20.29;56.39
74633;BME280;63139;52.018;8.552;2023-06-10T07:56:04;100630.13;;;20.36;56.39
74633;BME280;63139;52.018;8.552;2023-06-10T07:58:32;100630.88;;;20.43;56.49
74633;BME280;63139;52.018;8.552;2023-06-10T08:00:59;100632.19;;;20.52;56.84
74633;BME280;63139;52.018;8.552;2023-06-10T08:03:27;100631.59;;;20.62;56.90
74633;BME280;63139;52.018;8.552;2023-06-10T08:05:57;100634.44;;;20.67;56.51
74633;BME280;63139;52.018;8.552;2023-06-10T08:08:24;100640.41;;;20.69;55.61
74633;BME280;63139;52.018;8.552;2023-06-10T08:10:52;100628.25;;;20.78;55.96
74633;BME280;63139;52.018;8.552;2023-06-10T08:13:20;100634.34;;;20.85;55.85
74633;BME280;63139;52.018;8.552;2023-06-10T08:15:48;100631.66;;;20.85;55.33
74633;BME280;63139;52.018;8.552;2023-06-10T08:18:17;100632.47;;;20.97;55.72
74633;BME280;63139;52.018;8.552;2023-06-10T08:20:45;100643.84;;;20.99;55.09
74633;BME280;63139;52.018;8.552;2023-06-10T08:23:14;100639.88;;;21.02;54.98
74633;BME280;63139;52.018;8.552;2023-06-10T08:25:42;100636.84;;;21.10;54.96
74633;BME280;63139;52.018;8.552;2023-06-10T08:28:09;100636.75;;;21.16;55.07
74633;BME280;63139;52.018;8.552;2023-06-10T08:30:37;100639.13;;;21.24;55.33
74633;BME280;63139;52.018;8.552;2023-06-10T08:33:05;100631.97;;;21.30;55.49
74633;BME280;63139;52.018;8.552;2023-06-10T08:35:33;100637.00;;;21.38;55.30
74633;BME280;63139;52.018;8.552;2023-06-10T08:38:01;100634.19;;;21.45;55.44
74633;BME280;63139;52.018;8.552;2023-06-10T08:40:30;100632.19;;;21.52;54.90
74633;BME280;63139;52.018;8.552;2023-06-10T08:43:03;100633.38;;;21.56;54.80
74633;BME280;63139;52.018;8.552;2023-06-10T08:45:35;100625.59;;;21.59;54.93
74633;BME280;63139;52.018;8.552;2023-06-10T08:48:03;100631.69;;;21.66;54.90
74633;BME280;63139;52.018;8.552;2023-06-10T08:50:34;100625.69;;;21.76;55.26
74633;BME280;63139;52.018;8.552;2023-06-10T08:53:05;100630.38;;;21.81;55.10
74633;BME280;63139;52.018;8.552;2023-06-10T08:55:36;100632.38;;;21.85;54.52
74633;BME280;63139;52.018;8.552;2023-06-10T08:58:05;100628.47;;;21.93;54.89
74633;BME280;63139;52.018;8.552;2023-06-10T09:00:34;100632.94;;;21.99;54.32
74633;BME280;63139;52.018;8.552;2023-06-10T09:03:03;100636.66;;;22.10;54.84
74633;BME280;63139;52.018;8.552;2023-06-10T09:05:35;100625.72;;;22.16;53.41
74633;BME280;63139;52.018;8.552;2023-06-10T09:08:05;100631.31;;;22.26;52.99
74633;BME280;63139;52.018;8.552;2023-06-10T09:10:35;100625.53;;;22.34;53.00
74633;BME280;63139;52.018;8.552;2023-06-10T09:13:03;100638.06;;;22.40;51.47
74633;BME280;63139;52.018;8.552;2023-06-10T09:15:30;100639.78;;;22.46;51.41
74633;BME280;63139;52.018;8.552;2023-06-10T09:17:58;100630.22;;;22.56;51.23
74633;BME280;63139;52.018;8.552;2023-06-10T09:20:27;100642.44;;;22.58;50.09
74633;BME280;63139;52.018;8.552;2023-06-10T09:22:55;100633.44;;;22.69;50.93
74633;BME280;63139;52.018;8.552;2023-06-10T09:25:36;100636.59;;;22.78;50.02
74633;BME280;63139;52.018;8.552;2023-06-10T09:28:04;100616.94;;;22.82;50.58
74633;BME280;63139;52.018;8.552;2023-06-10T09:30:33;100621.63;;;22.87;49.65
74633;BME280;63139;52.018;8.552;2023-06-10T09:33:02;100626.28;;;22.92;48.96
74633;BME280;63139;52.018;8.552;2023-06-10T09:35:30;100635.19;;;22.92;48.22
74633;BME280;63139;52.018;8.552;2023-06-10T09:37:59;100626.09;;;22.98;49.08
74633;BME280;63139;52.018;8.552;2023-06-10T09:40:28;100614.06;;;23.06;49.36
74633;BME280;63139;52.018;8.552;2023-06-10T09:42:59;100626.28;;;23.08;48.87
74633;BME280;63139;52.018;8.552;2023-06-10T09:45:29;100619.06;;;23.14;48.65
74633;BME280;63139;52.018;8.552;2023-06-10T09:47:58;100625.03;;;23.16;48.44
74633;BME280;63139;52.018;8.552;2023-06-10T09:50:26;100624.88;;;23.22;48.66
74633;BME280;63139;52.018;8.552;2023-06-10T09:52:54;100639.28;;;23.28;48.53
74633;BME280;63139;52.018;8.552;2023-06-10T09:55:23;100619.63;;;23.33;48.52
74633;BME280;63139;52.018;8.552;2023-06-10T09:57:53;100619.69;;;23.38;48.81
74633;BME280;63139;52.018;8.552;2023-06-10T10:00:23;100613.53;;;23.42;48.68
74633;BME280;63139;52.018;8.552;2023-06-10T10:02:53;100618.00;;;23.48;48.31
74633;BME280;63139;52.018;8.552;2023-06-10T10:05:22;100613.47;;;23.54;48.63
74633;BME280;63139;52.018;8.552;2023-06-10T10:07:51;100620.41;;;23.50;47.41
74633;BME280;63139;52.018;8.552;2023-06-10T10:10:20;100626.97;;;23.54;47.77
74633;BME280;63139;52.018;8.552;2023-06-10T10:12:51;100620.00;;;23.58;47.45
74633;BME280;63139;52.018;8.552;2023-06-10T10:15:23;100615.72;;;23.62;47.05
74633;BME280;63139;52.018;8.552;2023-06-10T10:17:54;100620.38;;;23.67;46.33
74633;BME280;63139;52.018;8.552;2023-06-10T10:20:27;100629.31;;;23.67;45.91
74633;BME280;63139;52.018;8.552;2023-06-10T10:22:57;100627.47;;;23.73;46.45
74633;BME280;63139;52.018;8.552;2023-06-10T10:25:29;100627.00;;;23.76;44.40
74633;BME280;63139;52.018;8.552;2023-06-10T10:28:02;100629.19;;;23.79;44.32
74633;BME280;63139;52.018;8.552;2023-06-10T10:30:38;100612.22;;;23.83;44.24
74633;BME280;63139;52.018;8.552;2023-06-10T10:33:11;100615.78;;;23.89;43.82
74633;BME280;63139;52.018;8.552;2023-06-10T10:35:41;100627.00;;;23.97;44.52
74633;BME280;63139;52.018;8.552;2023-06-10T10:38:09;100631.09;;;24.00;44.58
74633;BME280;63139;52.018;8.552;2023-06-10T10:40:38;100625.72;;;24.05;44.53
74633;BME280;63139;52.018;8.552;2023-06-10T10:43:07;100627.13;;;24.08;42.62
74633;BME280;63139;52.018;8.552;2023-06-10T10:45:37;100623.69;;;24.17;42.82
74633;BME280;63139;52.018;8.552;2023-06-10T10:48:07;100621.09;;;24.22;43.96
74633;BME280;63139;52.018;8.552;2023-06-10T10:50:38;100615.72;;;24.27;44.11
74633;BME280;63139;52.018;8.552;2023-06-10T10:53:08;100624.91;;;24.26;43.67
74633;BME280;63139;52.018;8.552;2023-06-10T10:55:36;100615.25;;;24.35;43.75
74633;BME280;63139;52.018;8.552;2023-06-10T10:58:05;100632.63;;;24.40;42.63
74633;BME280;63139;52.018;8.552;2023-06-10T11:00:35;100615.56;;;24.39;41.79
74633;BME280;63139;52.018;8.552;2023-06-10T11:03:12;100608.03;;;24.46;41.44
74633;BME280;63139;52.018;8.552;2023-06-10T11:05:44;100621.06;;;24.49;41.24
74633;BME280;63139;52.018;8.552;2023-06-10T11:08:16;100606.75;;;24.54;41.33
74633;BME280;63139;52.018;8.552;2023-06-10T11:11:17;100614.13;;;24.58;37.56
74633;BME280;63139;52.018;8.552;2023-06-10T11:13:58;100597.09;;;24.63;39.25
74633;BME280;63139;52.018;8.552;2023-06-10T11:16:27;100600.13;;;24.66;40.41
74633;BME280;63139;52.018;8.552;2023-06-10T11:18:57;100605.56;;;24.71;40.50
74633;BME280;63139;52.018;8.552;2023-06-10T11:21:25;100611.03;;;24.76;40.59
74633;BME280;63139;52.018;8.552;2023-06-10T11:23:57;100603.47;;;24.79;40.64
74633;BME280;63139;52.018;8.552;2023-06-10T11:26:30;100603.22;;;24.85;41.30
74633;BME280;63139;52.018;8.552;2023-06-10T11:29:06;100600.34;;;24.92;40.45
74633;BME280;63139;52.018;8.552;2023-06-10T11:31:39;100596.00;;;24.91;41.43
74633;BME280;63139;52.018;8.552;2023-06-10T11:34:13;100595.50;;;24.99;41.91
74633;BME280;63139;52.018;8.552;2023-06-10T11:36:42;100601.25;;;25.02;42.07
74633;BME280;63139;52.018;8.552;2023-06-10T11:39:12;100600.69;;;25.05;42.42
74633;BME280;63139;52.018;8.552;2023-06-10T11:41:40;100593.13;;;25.07;42.41
74633;BME280;63139;52.018;8.552;2023-06-10T11:44:09;100595.03;;;25.07;42.34
74633;BME280;63139;52.018;8.552;2023-06-10T11:46:37;100591.81;;;25.10;42.57
74633;BME280;63139;52.018;8.552;2023-06-10T11:49:06;100588.56;;;25.13;42.94
74633;BME280;63139;52.018;8.552;2023-06-10T11:51:36;100593.72;;;25.14;43.43
74633;BME280;63139;52.018;8.552;2023-06-10T11:54:06;100592.13;;;25.19;43.56
74633;BME280;63139;52.018;8.552;2023-06-10T11:56:35;100582.13;;;25.19;43.87
74633;BME280;63139;52.018;8.552;2023-06-10T11:59:04;100581.56;;;25.22;43.26
74633;BME280;63139;52.018;8.552;2023-06-10T12:01:35;100576.72;;;25.24;42.89
74633;BME280;63139;52.018;8.552;2023-06-10T12:04:09;100580.25;;;25.25;43.62
74633;BME280;63139;52.018;8.552;2023-06-10T12:06:40;100581.56;;;25.22;43.39
74633;BME280;63139;52.018;8.552;2023-06-10T12:09:17;100574.28;;;25.28;43.63
74633;BME280;63139;52.018;8.552;2023-06-10T12:11:57;100581.59;;;25.27;43.41
74633;BME280;63139;52.018;8.552;2023-06-10T12:14:50;100571.28;;;25.24;42.77
74633;BME280;63139;52.018;8.552;2023-06-10T12:17:20;100575.09;;;25.28;43.68
74633;BME280;63139;52.018;8.552;2023-06-10T12:19:49;100569.72;;;25.33;44.00
74633;BME280;63139;52.018;8.552;2023-06-10T12:22:19;100572.16;;;25.35;44.12
74633;BME280;63139;52.018;8.552;2023-06-10T12:24:57;100569.16;;;25.36;43.36
74633;BME280;63139;52.018;8.552;2023-06-10T12:27:27;100562.41;;;25.39;44.39
74633;BME280;63139;52.018;8.552;2023-06-10T12:29:59;100576.53;;;25.41;44.63
74633;BME280;63139;52.018;8.552;2023-06-10T12:32:38;100561.91;;;25.47;44.73
74633;BME280;63139;52.018;8.552;2023-06-10T12:35:07;100567.34;;;25.52;45.56
74633;BME280;63139;52.018;8.552;2023-06-10T12:37:37;100579.84;;;25.53;44.71
74633;BME280;63139;52.018;8.552;2023-06-10T12:40:09;100567.13;;;25.59;44.83
74633;BME280;63139;52.018;8.552;2023-06-10T12:42:38;100562.75;;;25.58;44.80
74633;BME280;63139;52.018;8.552;2023-06-10T12:45:07;100569.06;;;25.63;45.02
74633;BME280;63139;52.018;8.552;2023-06-10T12:47:37;100568.50;;;25.61;44.70
74633;BME280;63139;52.018;8.552;2023-06-10T12:50:06;100570.97;;;25.68;44.94
74633;BME280;63139;52.018;8.552;2023-06-10T12:52:39;100566.63;;;25.67;44.90
74633;BME280;63139;52.018;8.552;2023-06-10T12:55:08;100575.88;;;25.71;44.71
74633;BME280;63139;52.018;8.552;2023-06-10T12:57:36;100571.81;;;25.73;44.37
74633;BME280;63139;52.018;8.552;2023-06-10T13:00:05;100568.56;;;25.76;44.83
74633;BME280;63139;52.018;8.552;2023-06-10T13:02:35;100562.91;;;25.83;44.37